createdAt,value
2023-01-29T00:00:03.711Z,27.00
2023-01-29T00:00:24.777Z,36.40
2023-01-29T00:00:45.910Z,57.50
2023-01-29T00:01:06.988Z,89.80
2023-01-29T00:01:28.084Z,85.10
2023-01-29T00:01:49.249Z,66.60
2023-01-29T00:02:10.419Z,67.50
2023-01-29T00:02:31.470Z,54.60
2023-01-29T00:02:52.577Z,25.10
2023-01-29T00:03:13.635Z,16.60
2023-01-29T00:03:34.715Z,19.40
2023-01-29T00:03:55.770Z,21.90
2023-01-29T00:04:16.835Z,39.70
2023-01-29T00:04:37.881Z,57.40
2023-01-29T00:04:59.303Z,49.30
2023-01-29T00:05:27.889Z,24.80
2023-01-29T00:05:47.303Z,14.50
2023-01-29T00:06:08.362Z,17.80
2023-01-29T00:06:29.600Z,17.70
2023-01-29T00:06:50.649Z,11.10
2023-01-29T00:07:11.706Z,9.00
2023-01-29T00:07:32.788Z,10.80
2023-01-29T00:07:53.837Z,9.90
2023-01-29T00:08:14.906Z,10.40
2023-01-29T00:08:35.954Z,19.00
2023-01-29T00:08:57.014Z,55.90
2023-01-29T00:09:18.076Z,48.00
2023-01-29T00:09:39.165Z,50.80
2023-01-29T00:10:00.222Z,45.90
2023-01-29T00:10:21.286Z,201.20
2023-01-29T00:10:42.345Z,175.40
2023-01-29T00:11:03.407Z,69.10
2023-01-29T00:11:24.493Z,64.10
2023-01-29T00:11:45.594Z,41.50
2023-01-29T00:12:06.631Z,40.70
2023-01-29T00:12:27.689Z,34.10
2023-01-29T00:12:48.750Z,26.00
2023-01-29T00:13:09.802Z,19.30
2023-01-29T00:13:30.860Z,16.70
2023-01-29T00:13:51.933Z,14.10
2023-01-29T00:14:12.979Z,13.30
2023-01-29T00:14:34.043Z,11.40
2023-01-29T00:14:55.147Z,12.80
2023-01-29T00:15:16.196Z,11.30
2023-01-29T00:15:37.249Z,11.50
2023-01-29T00:15:58.304Z,9.20
2023-01-29T00:16:19.429Z,8.70
2023-01-29T00:16:40.490Z,11.00
2023-01-29T00:17:01.655Z,9.60
2023-01-29T00:17:22.819Z,9.30
2023-01-29T00:17:43.851Z,11.10
2023-01-29T00:18:04.908Z,10.80
2023-01-29T00:18:25.961Z,9.60
2023-01-29T00:18:47.021Z,12.00
2023-01-29T00:19:08.111Z,32.60
2023-01-29T00:19:29.154Z,37.30
2023-01-29T00:19:50.241Z,14.10
2023-01-29T00:20:11.323Z,15.50
2023-01-29T00:20:32.374Z,22.50
2023-01-29T00:20:53.432Z,48.80
2023-01-29T00:21:14.484Z,24.70
2023-01-29T00:21:35.557Z,18.40
2023-01-29T00:21:56.602Z,27.70
2023-01-29T00:22:17.692Z,27.20
2023-01-29T00:22:38.756Z,38.90
2023-01-29T00:22:59.794Z,28.60
2023-01-29T00:23:20.858Z,49.80
2023-01-29T00:23:41.909Z,52.70
2023-01-29T00:24:03.019Z,65.40
2023-01-29T00:24:24.173Z,75.80
2023-01-29T00:24:45.280Z,53.50
2023-01-29T00:25:06.339Z,47.40
2023-01-29T00:25:27.373Z,43.20
2023-01-29T00:25:48.424Z,39.70
2023-01-29T00:26:09.487Z,28.50
2023-01-29T00:26:30.544Z,24.00
2023-01-29T00:26:51.665Z,22.80
2023-01-29T00:27:12.683Z,22.10
2023-01-29T00:27:33.926Z,25.70
2023-01-29T00:27:54.969Z,26.00
2023-01-29T00:28:16.048Z,26.20
2023-01-29T00:28:37.095Z,25.70
2023-01-29T00:28:58.149Z,32.30
2023-01-29T00:29:19.200Z,41.00
2023-01-29T00:29:40.278Z,58.60
2023-01-29T00:30:01.343Z,63.80
2023-01-29T00:30:22.389Z,58.30
2023-01-29T00:30:43.439Z,50.10
2023-01-29T00:31:04.590Z,38.80
2023-01-29T00:31:25.791Z,32.40
2023-01-29T00:31:47.053Z,54.30
2023-01-29T00:32:08.304Z,90.60
2023-01-29T00:32:29.403Z,79.10
2023-01-29T00:32:50.650Z,73.10
2023-01-29T00:33:11.720Z,61.50
2023-01-29T00:33:32.785Z,56.40
2023-01-29T00:33:53.822Z,44.60
2023-01-29T00:34:14.879Z,30.30
2023-01-29T00:34:35.940Z,20.00
2023-01-29T00:34:56.994Z,15.80
2023-01-29T00:35:18.069Z,14.40
2023-01-29T00:35:39.128Z,12.10
2023-01-29T00:36:00.182Z,12.20
2023-01-29T00:36:21.246Z,11.00
2023-01-29T00:36:42.303Z,12.00
2023-01-29T00:37:03.358Z,10.50
2023-01-29T00:37:24.416Z,10.20
2023-01-29T00:37:45.485Z,10.30
2023-01-29T00:38:06.551Z,9.10
2023-01-29T00:38:27.605Z,8.40
2023-01-29T00:38:48.662Z,7.80
2023-01-29T00:39:09.765Z,9.10
2023-01-29T00:39:45.971Z,8.80
2023-01-29T00:39:57.861Z,9.30
2023-01-29T00:40:19.170Z,9.20
2023-01-29T00:40:40.385Z,8.30
2023-01-29T00:41:01.449Z,9.50
2023-01-29T00:41:22.499Z,9.40
2023-01-29T00:41:43.556Z,8.70
2023-01-29T00:42:04.618Z,8.20
2023-01-29T00:42:25.680Z,8.60
2023-01-29T00:42:46.725Z,8.10
2023-01-29T00:43:07.953Z,8.40
2023-01-29T00:43:29.012Z,9.10
2023-01-29T00:43:50.081Z,9.10
2023-01-29T00:44:11.142Z,9.10
2023-01-29T00:44:32.214Z,10.80
2023-01-29T00:44:53.262Z,10.60
2023-01-29T00:45:14.320Z,11.30
2023-01-29T00:45:35.371Z,11.70
2023-01-29T00:45:56.436Z,9.30
2023-01-29T00:46:17.567Z,8.60
2023-01-29T00:46:38.670Z,7.70
2023-01-29T00:46:59.872Z,8.10
2023-01-29T00:47:20.922Z,11.30
2023-01-29T00:47:41.993Z,9.40
2023-01-29T00:48:03.040Z,7.90
2023-01-29T00:48:24.216Z,10.10
2023-01-29T00:48:45.298Z,9.60
2023-01-29T00:49:06.385Z,8.20
2023-01-29T00:49:27.411Z,9.10
2023-01-29T00:49:48.475Z,9.30
2023-01-29T00:50:09.527Z,9.00
2023-01-29T00:50:30.579Z,8.60
2023-01-29T00:50:51.644Z,8.60
2023-01-29T00:51:12.710Z,8.60
2023-01-29T00:51:33.775Z,9.00
2023-01-29T00:51:54.827Z,9.20
2023-01-29T00:52:15.918Z,8.20
2023-01-29T00:52:36.957Z,8.40
2023-01-29T00:52:58.014Z,7.90
2023-01-29T00:53:19.075Z,8.10
2023-01-29T00:53:40.176Z,7.70
2023-01-29T00:54:01.233Z,7.90
2023-01-29T00:54:22.290Z,7.50
2023-01-29T00:54:43.367Z,7.60
2023-01-29T00:55:04.468Z,9.90
2023-01-29T00:55:25.508Z,8.40
2023-01-29T00:55:46.573Z,7.60
2023-01-29T00:56:07.608Z,7.70
2023-01-29T00:56:28.724Z,8.30
2023-01-29T00:56:49.748Z,8.40
2023-01-29T00:57:10.808Z,9.00
2023-01-29T00:57:31.879Z,9.40
2023-01-29T00:57:52.925Z,7.90
2023-01-29T00:58:13.980Z,7.90
2023-01-29T00:58:35.039Z,7.70
2023-01-29T00:58:56.126Z,8.40
2023-01-29T00:59:17.179Z,7.60
2023-01-29T00:59:38.238Z,7.90
2023-01-29T00:59:59.295Z,8.40
2023-01-29T01:00:20.387Z,10.50
2023-01-29T01:00:41.521Z,9.00
2023-01-29T01:01:02.694Z,7.30
2023-01-29T01:01:23.800Z,7.90
2023-01-29T01:01:44.885Z,9.20
2023-01-29T01:02:05.922Z,8.60
2023-01-29T01:02:27.009Z,9.20
2023-01-29T01:02:48.072Z,9.90
2023-01-29T01:03:09.116Z,7.00
2023-01-29T01:03:30.231Z,7.50
2023-01-29T01:03:51.292Z,7.10
2023-01-29T01:04:12.541Z,8.10
2023-01-29T01:04:35.074Z,8.80
2023-01-29T01:04:56.138Z,8.10
2023-01-29T01:05:17.183Z,8.70
2023-01-29T01:05:38.245Z,9.20
2023-01-29T01:05:59.300Z,7.80
2023-01-29T01:06:20.411Z,8.20
2023-01-29T01:06:41.421Z,8.40
2023-01-29T01:07:02.499Z,8.30
2023-01-29T01:07:23.595Z,8.70
2023-01-29T01:07:44.627Z,8.30
2023-01-29T01:08:05.679Z,7.50
2023-01-29T01:08:26.739Z,8.50
2023-01-29T01:08:47.793Z,9.00
2023-01-29T01:09:08.846Z,8.80
2023-01-29T01:09:30.177Z,8.20
2023-01-29T01:09:51.213Z,8.20
2023-01-29T01:10:12.285Z,7.90
2023-01-29T01:10:33.340Z,8.20
2023-01-29T01:10:54.369Z,7.60
2023-01-29T01:11:15.434Z,7.50
2023-01-29T01:11:36.505Z,8.00
2023-01-29T01:11:57.571Z,8.30
2023-01-29T01:12:18.620Z,8.80
2023-01-29T01:12:39.689Z,7.80
2023-01-29T01:13:00.752Z,8.20
2023-01-29T01:13:21.797Z,8.20
2023-01-29T01:13:42.949Z,8.20
2023-01-29T01:14:03.969Z,8.50
2023-01-29T01:14:25.024Z,8.50
2023-01-29T01:14:46.357Z,9.00
2023-01-29T01:15:07.394Z,8.10
2023-01-29T01:15:28.458Z,7.80
2023-01-29T01:15:49.508Z,8.20
2023-01-29T01:16:10.613Z,8.50
2023-01-29T01:16:31.711Z,8.40
2023-01-29T01:16:52.800Z,8.50
2023-01-29T01:17:13.806Z,9.10
2023-01-29T01:17:34.866Z,9.00
2023-01-29T01:17:55.919Z,9.40
2023-01-29T01:18:16.984Z,9.00
2023-01-29T01:18:38.034Z,9.50
2023-01-29T01:18:59.096Z,9.00
2023-01-29T01:19:20.155Z,9.60
2023-01-29T01:19:41.215Z,9.80
2023-01-29T01:20:02.516Z,9.60
2023-01-29T01:20:23.539Z,10.00
2023-01-29T01:20:44.596Z,9.60
2023-01-29T01:21:05.642Z,9.90
2023-01-29T01:21:26.705Z,11.10
2023-01-29T01:21:47.767Z,10.70
2023-01-29T01:22:08.818Z,9.10
2023-01-29T01:22:29.879Z,8.80
2023-01-29T01:22:50.959Z,9.30
2023-01-29T01:23:11.987Z,9.10
2023-01-29T01:23:33.060Z,9.50
2023-01-29T01:23:54.183Z,10.80
2023-01-29T01:24:15.303Z,11.60
2023-01-29T01:24:36.338Z,10.20
2023-01-29T01:24:57.390Z,10.30
2023-01-29T01:25:18.651Z,11.40
2023-01-29T01:25:39.728Z,10.80
2023-01-29T01:26:00.759Z,10.00
2023-01-29T01:26:21.816Z,9.60
2023-01-29T01:26:42.887Z,10.50
2023-01-29T01:27:03.950Z,10.50
2023-01-29T01:27:25.012Z,9.70
2023-01-29T01:27:46.152Z,8.80
2023-01-29T01:28:07.225Z,9.70
2023-01-29T01:28:28.301Z,9.70
2023-01-29T01:28:49.348Z,10.50
2023-01-29T01:29:10.425Z,10.70
2023-01-29T01:29:31.471Z,9.50
2023-01-29T01:29:52.617Z,10.30
2023-01-29T01:30:13.903Z,9.90
2023-01-29T01:30:35.140Z,10.00
2023-01-29T01:30:56.240Z,8.40
2023-01-29T01:31:17.439Z,9.30
2023-01-29T01:31:38.544Z,10.00
2023-01-29T01:31:59.860Z,9.30
2023-01-29T01:32:20.991Z,8.30
2023-01-29T01:32:42.057Z,9.30
2023-01-29T01:33:03.117Z,8.80
2023-01-29T01:33:24.166Z,9.90
2023-01-29T01:33:45.244Z,9.30
2023-01-29T01:34:06.305Z,10.30
2023-01-29T01:34:27.375Z,8.20
2023-01-29T01:34:48.411Z,8.30
2023-01-29T01:35:09.483Z,7.80
2023-01-29T01:35:30.527Z,8.50
2023-01-29T01:35:51.787Z,9.90
2023-01-29T01:36:12.843Z,10.60
2023-01-29T01:36:33.895Z,8.70
2023-01-29T01:36:54.966Z,9.50
2023-01-29T01:37:16.036Z,10.00
2023-01-29T01:37:37.145Z,10.50
2023-01-29T01:37:58.177Z,11.10
2023-01-29T01:38:19.223Z,8.70
2023-01-29T01:38:40.284Z,9.10
2023-01-29T01:39:01.349Z,9.40
2023-01-29T01:39:22.404Z,11.50
2023-01-29T01:39:43.459Z,9.50
2023-01-29T01:40:04.527Z,9.90
2023-01-29T01:40:25.619Z,9.70
2023-01-29T01:40:46.655Z,9.70
2023-01-29T01:41:07.760Z,9.20
2023-01-29T01:41:28.817Z,8.60
2023-01-29T01:41:49.855Z,9.20
2023-01-29T01:42:10.904Z,8.90
2023-01-29T01:42:31.977Z,8.60
2023-01-29T01:42:53.055Z,7.90
2023-01-29T01:43:14.121Z,8.40
2023-01-29T01:43:35.182Z,9.40
2023-01-29T01:43:56.238Z,10.10
2023-01-29T01:44:17.303Z,8.60
2023-01-29T01:44:38.389Z,8.70
2023-01-29T01:44:59.438Z,7.70
2023-01-29T01:45:20.494Z,8.20
2023-01-29T01:45:41.662Z,8.20
2023-01-29T01:46:02.797Z,9.30
2023-01-29T01:46:23.904Z,9.90
2023-01-29T01:46:44.963Z,8.00
2023-01-29T01:47:06.004Z,8.20
2023-01-29T01:47:27.069Z,9.30
2023-01-29T01:47:48.175Z,10.00
2023-01-29T01:48:09.251Z,8.60
2023-01-29T01:48:30.274Z,9.10
2023-01-29T01:48:51.327Z,9.30
2023-01-29T01:49:12.393Z,9.10
2023-01-29T01:49:33.449Z,8.40
2023-01-29T01:49:54.504Z,9.20
2023-01-29T01:50:15.892Z,9.40
2023-01-29T01:50:37.081Z,9.40
2023-01-29T01:50:58.144Z,10.50
2023-01-29T01:51:19.191Z,8.10
2023-01-29T01:51:40.297Z,7.60
2023-01-29T01:52:01.355Z,7.70
2023-01-29T01:52:22.409Z,7.90
2023-01-29T01:52:43.485Z,8.10
2023-01-29T01:53:04.526Z,8.80
2023-01-29T01:53:25.608Z,7.80
2023-01-29T01:53:46.649Z,7.50
2023-01-29T01:54:07.748Z,8.10
2023-01-29T01:54:28.779Z,8.00
2023-01-29T01:54:49.829Z,8.60
2023-01-29T01:55:10.908Z,10.10
2023-01-29T01:55:31.966Z,10.30
2023-01-29T01:55:53.020Z,9.00
2023-01-29T01:56:14.072Z,9.60
2023-01-29T01:56:35.124Z,8.50
2023-01-29T01:56:56.219Z,9.50
2023-01-29T01:57:17.334Z,8.00
2023-01-29T01:57:38.367Z,8.50
2023-01-29T01:57:59.424Z,9.60
2023-01-29T01:58:20.516Z,9.10
2023-01-29T01:58:41.564Z,9.50
2023-01-29T01:59:02.618Z,9.10
2023-01-29T01:59:23.665Z,10.70
2023-01-29T01:59:44.723Z,9.50
2023-01-29T02:00:05.776Z,9.40
2023-01-29T02:00:26.834Z,9.40
2023-01-29T02:00:47.958Z,8.80
2023-01-29T02:01:09.011Z,9.40
2023-01-29T02:01:30.075Z,9.60
2023-01-29T02:01:51.157Z,9.50
2023-01-29T02:02:12.316Z,10.10
2023-01-29T02:02:33.347Z,9.90
2023-01-29T02:02:54.411Z,9.60
2023-01-29T02:03:15.476Z,10.40
2023-01-29T02:03:36.538Z,10.10
2023-01-29T02:03:57.685Z,8.70
2023-01-29T02:04:18.703Z,9.70
2023-01-29T02:04:39.798Z,10.50
2023-01-29T02:05:00.856Z,9.80
2023-01-29T02:05:21.916Z,10.40
2023-01-29T02:05:43.003Z,9.90
2023-01-29T02:06:04.054Z,9.30
2023-01-29T02:06:25.120Z,10.40
2023-01-29T02:06:46.170Z,11.00
2023-01-29T02:07:07.231Z,10.00
2023-01-29T02:07:28.307Z,9.30
2023-01-29T02:07:49.363Z,9.10
2023-01-29T02:08:10.458Z,9.20
2023-01-29T02:08:31.517Z,8.20
2023-01-29T02:08:52.571Z,9.00
2023-01-29T02:09:13.625Z,9.10
2023-01-29T02:09:34.687Z,9.50
2023-01-29T02:09:55.790Z,9.40
2023-01-29T02:10:17.033Z,9.40
2023-01-29T02:10:38.225Z,9.90
2023-01-29T02:10:59.303Z,10.30
2023-01-29T02:11:20.335Z,9.90
2023-01-29T02:11:41.425Z,9.50
2023-01-29T02:12:02.483Z,9.50
2023-01-29T02:12:23.543Z,9.70
2023-01-29T02:12:44.771Z,9.90
2023-01-29T02:13:05.876Z,8.90
2023-01-29T02:13:26.948Z,8.90
2023-01-29T02:13:47.992Z,10.20
2023-01-29T02:14:09.085Z,11.40
2023-01-29T02:14:30.144Z,12.50
2023-01-29T02:14:51.226Z,11.50
2023-01-29T02:15:12.275Z,9.30
2023-01-29T02:15:33.318Z,9.40
2023-01-29T02:15:54.381Z,11.40
2023-01-29T02:16:15.467Z,10.70
2023-01-29T02:16:36.535Z,11.00
2023-01-29T02:16:57.589Z,10.60
2023-01-29T02:17:18.698Z,11.40
2023-01-29T02:17:39.814Z,12.40
2023-01-29T02:18:00.893Z,11.50
2023-01-29T02:18:21.950Z,9.40
2023-01-29T02:18:42.986Z,9.70
2023-01-29T02:19:04.060Z,11.00
2023-01-29T02:19:25.119Z,10.40
2023-01-29T02:19:46.183Z,10.80
2023-01-29T02:20:07.265Z,10.70
2023-01-29T02:20:28.299Z,11.50
2023-01-29T02:20:49.350Z,11.60
2023-01-29T02:21:10.411Z,12.00
2023-01-29T02:21:31.469Z,11.50
2023-01-29T02:21:52.531Z,11.10
2023-01-29T02:22:13.610Z,11.30
2023-01-29T02:22:34.664Z,10.80
2023-01-29T02:22:55.728Z,11.00
2023-01-29T02:23:16.837Z,10.80
2023-01-29T02:23:37.906Z,11.60
2023-01-29T02:23:59.093Z,10.50
2023-01-29T02:24:20.300Z,11.30
2023-01-29T02:24:41.398Z,11.80
2023-01-29T02:25:02.446Z,11.40
2023-01-29T02:25:23.520Z,10.60
2023-01-29T02:25:44.605Z,11.70
2023-01-29T02:26:05.640Z,11.80
2023-01-29T02:26:26.712Z,11.50
2023-01-29T02:26:47.761Z,12.70
2023-01-29T02:27:08.832Z,11.00
2023-01-29T02:27:29.930Z,11.20
2023-01-29T02:27:50.962Z,11.00
2023-01-29T02:28:12.021Z,10.60
2023-01-29T02:28:33.278Z,11.20
2023-01-29T02:28:54.324Z,12.50
2023-01-29T02:29:15.568Z,11.80
2023-01-29T02:29:36.624Z,10.20
2023-01-29T02:29:57.683Z,12.30
2023-01-29T02:30:19.016Z,11.60
2023-01-29T02:30:40.245Z,9.60
2023-01-29T02:31:01.319Z,10.30
2023-01-29T02:31:22.469Z,10.80
2023-01-29T02:31:43.584Z,11.40
2023-01-29T02:32:04.652Z,12.90
2023-01-29T02:32:25.706Z,10.50
2023-01-29T02:32:46.878Z,11.00
2023-01-29T02:33:07.943Z,11.40
2023-01-29T02:33:29.002Z,12.00
2023-01-29T02:33:50.167Z,10.60
2023-01-29T02:34:11.219Z,11.30
2023-01-29T02:34:32.293Z,10.20
2023-01-29T02:34:53.344Z,11.10
2023-01-29T02:35:14.389Z,11.10
2023-01-29T02:35:35.455Z,12.00
2023-01-29T02:35:56.523Z,11.60
2023-01-29T02:36:17.767Z,10.80
2023-01-29T02:36:38.817Z,10.50
2023-01-29T02:36:59.872Z,11.00
2023-01-29T02:37:20.945Z,10.50
2023-01-29T02:37:42.032Z,11.50
2023-01-29T02:38:03.066Z,10.70
2023-01-29T02:38:24.146Z,11.80
2023-01-29T02:38:45.193Z,10.60
2023-01-29T02:39:06.266Z,10.50
2023-01-29T02:39:27.323Z,10.50
2023-01-29T02:39:48.383Z,10.40
2023-01-29T02:40:09.444Z,10.80
2023-01-29T02:40:30.502Z,11.10
2023-01-29T02:40:51.579Z,10.60
2023-01-29T02:41:12.641Z,10.80
2023-01-29T02:41:33.689Z,10.90
2023-01-29T02:41:54.772Z,9.60
2023-01-29T02:42:15.802Z,10.10
2023-01-29T02:42:36.881Z,8.00
2023-01-29T02:42:57.975Z,7.90
2023-01-29T02:43:19.014Z,8.60
2023-01-29T02:43:40.091Z,8.30
2023-01-29T02:44:01.145Z,7.60
2023-01-29T02:44:22.375Z,8.60
2023-01-29T02:44:43.442Z,9.10
2023-01-29T02:45:04.508Z,7.30
2023-01-29T02:45:25.619Z,8.80
2023-01-29T02:45:46.699Z,9.40
2023-01-29T02:46:07.816Z,8.70
2023-01-29T02:46:28.844Z,10.10
2023-01-29T02:46:49.934Z,8.90
2023-01-29T02:47:10.988Z,8.50
2023-01-29T02:47:32.025Z,9.30
2023-01-29T02:47:53.089Z,8.80
2023-01-29T02:48:14.153Z,9.70
2023-01-29T02:48:35.227Z,10.10
2023-01-29T02:48:56.262Z,10.30
2023-01-29T02:49:17.360Z,10.20
2023-01-29T02:49:38.558Z,10.60
2023-01-29T02:49:59.627Z,10.50
2023-01-29T02:50:20.684Z,9.90
2023-01-29T02:50:41.737Z,10.80
2023-01-29T02:51:02.813Z,10.50
2023-01-29T02:51:23.867Z,10.50
2023-01-29T02:51:44.952Z,10.50
2023-01-29T02:52:05.992Z,12.70
2023-01-29T02:52:27.060Z,11.70
2023-01-29T02:52:48.118Z,9.00
2023-01-29T02:53:09.203Z,10.00
2023-01-29T02:53:30.246Z,9.80
2023-01-29T02:53:51.314Z,9.20
2023-01-29T02:54:12.377Z,9.60
2023-01-29T02:54:33.441Z,10.00
2023-01-29T02:54:54.683Z,11.20
2023-01-29T02:55:15.759Z,9.90
2023-01-29T02:55:36.792Z,10.80
2023-01-29T02:55:57.872Z,10.10
2023-01-29T02:56:18.971Z,10.50
2023-01-29T02:56:39.998Z,11.30
2023-01-29T02:57:01.051Z,10.50
2023-01-29T02:57:22.162Z,9.70
2023-01-29T02:57:43.196Z,10.70
2023-01-29T02:58:04.273Z,10.40
2023-01-29T02:58:25.313Z,9.70
2023-01-29T02:58:46.369Z,9.70
2023-01-29T02:59:07.437Z,8.90
2023-01-29T02:59:28.497Z,8.70
2023-01-29T02:59:49.563Z,9.30
2023-01-29T03:00:10.666Z,9.70
2023-01-29T03:00:31.708Z,9.10
2023-01-29T03:00:52.782Z,8.40
2023-01-29T03:01:13.899Z,8.60
2023-01-29T03:01:34.960Z,8.80
2023-01-29T03:01:56.060Z,9.00
2023-01-29T03:02:17.164Z,9.20
2023-01-29T03:02:38.295Z,8.20
2023-01-29T03:02:59.330Z,7.90
2023-01-29T03:03:20.397Z,8.80
2023-01-29T03:03:41.431Z,9.40
2023-01-29T03:04:02.494Z,8.50
2023-01-29T03:04:23.671Z,9.70
2023-01-29T03:04:44.702Z,8.50
2023-01-29T03:05:05.775Z,9.40
2023-01-29T03:05:26.870Z,10.20
2023-01-29T03:05:47.904Z,8.60
2023-01-29T03:06:08.984Z,8.70
2023-01-29T03:06:30.101Z,8.50
2023-01-29T03:06:51.167Z,8.40
2023-01-29T03:07:12.201Z,9.00
2023-01-29T03:07:33.260Z,9.00
2023-01-29T03:07:54.333Z,9.30
2023-01-29T03:08:15.477Z,9.30
2023-01-29T03:08:36.496Z,8.10
2023-01-29T03:08:57.547Z,8.80
2023-01-29T03:09:18.608Z,10.80
2023-01-29T03:09:39.663Z,9.80
2023-01-29T03:10:00.728Z,7.70
2023-01-29T03:10:21.839Z,8.70
2023-01-29T03:10:43.055Z,9.00
2023-01-29T03:11:04.138Z,9.70
2023-01-29T03:11:25.182Z,8.50
2023-01-29T03:11:46.233Z,8.80
2023-01-29T03:12:07.303Z,7.90
2023-01-29T03:12:28.395Z,9.40
2023-01-29T03:12:49.476Z,9.20
2023-01-29T03:13:10.498Z,8.50
2023-01-29T03:13:31.608Z,8.30
2023-01-29T03:13:52.655Z,8.50
2023-01-29T03:14:13.701Z,9.30
2023-01-29T03:14:34.757Z,9.50
2023-01-29T03:14:55.834Z,8.90
2023-01-29T03:15:16.879Z,8.30
2023-01-29T03:15:37.959Z,8.00
2023-01-29T03:15:59.005Z,8.60
2023-01-29T03:16:20.188Z,9.70
2023-01-29T03:16:41.259Z,9.00
2023-01-29T03:17:02.309Z,7.80
2023-01-29T03:17:23.360Z,8.40
2023-01-29T03:17:44.503Z,9.50
2023-01-29T03:18:05.666Z,8.50
2023-01-29T03:18:26.719Z,8.50
2023-01-29T03:18:47.771Z,8.30
2023-01-29T03:19:08.850Z,9.30
2023-01-29T03:19:29.902Z,9.30
2023-01-29T03:19:50.969Z,9.50
2023-01-29T03:20:12.008Z,9.20
2023-01-29T03:20:33.121Z,8.80
2023-01-29T03:20:54.172Z,8.90
2023-01-29T03:21:15.243Z,9.10
2023-01-29T03:21:36.312Z,8.60
2023-01-29T03:21:57.402Z,7.90
2023-01-29T03:22:18.445Z,9.40
2023-01-29T03:22:39.527Z,9.80
2023-01-29T03:23:00.572Z,8.40
2023-01-29T03:23:21.608Z,8.30
2023-01-29T03:23:42.656Z,9.00
2023-01-29T03:24:03.802Z,8.40
2023-01-29T03:24:25.037Z,10.20
2023-01-29T03:24:46.124Z,9.00
2023-01-29T03:25:07.191Z,8.20
2023-01-29T03:25:28.249Z,8.50
2023-01-29T03:25:49.303Z,9.40
2023-01-29T03:26:10.386Z,9.00
2023-01-29T03:26:31.460Z,7.90
2023-01-29T03:26:52.497Z,8.10
2023-01-29T03:27:13.567Z,7.50
2023-01-29T03:27:34.633Z,8.00
2023-01-29T03:27:55.720Z,8.10
2023-01-29T03:28:16.771Z,8.80
2023-01-29T03:28:37.858Z,8.90
2023-01-29T03:28:58.914Z,8.70
2023-01-29T03:29:19.961Z,9.90
2023-01-29T03:29:41.030Z,8.70
2023-01-29T03:30:02.124Z,8.60
2023-01-29T03:30:23.158Z,11.00
2023-01-29T03:30:44.209Z,10.50
2023-01-29T03:31:05.325Z,9.40
2023-01-29T03:31:26.533Z,10.70
2023-01-29T03:31:47.731Z,10.70
2023-01-29T03:32:08.889Z,9.30
2023-01-29T03:32:29.967Z,9.40
2023-01-29T03:32:50.989Z,9.70
2023-01-29T03:33:12.051Z,9.80
2023-01-29T03:33:33.120Z,9.20
2023-01-29T03:33:54.171Z,9.10
2023-01-29T03:34:15.228Z,9.90
2023-01-29T03:34:36.279Z,10.30
2023-01-29T03:34:57.342Z,9.60
2023-01-29T03:35:18.426Z,8.90
2023-01-29T03:35:39.516Z,10.20
2023-01-29T03:36:00.593Z,10.00
2023-01-29T03:36:21.648Z,10.00
2023-01-29T03:36:42.711Z,10.60
2023-01-29T03:37:03.793Z,9.90
2023-01-29T03:37:24.858Z,9.10
2023-01-29T03:37:45.910Z,9.20
2023-01-29T03:38:06.960Z,9.70
2023-01-29T03:38:28.018Z,9.50
2023-01-29T03:38:49.067Z,9.70
2023-01-29T03:39:10.133Z,9.60
2023-01-29T03:39:31.226Z,9.70
2023-01-29T03:39:52.259Z,9.60
2023-01-29T03:40:13.482Z,10.60
2023-01-29T03:40:34.615Z,10.90
2023-01-29T03:40:55.722Z,10.90
2023-01-29T03:41:16.751Z,9.90
2023-01-29T03:41:37.978Z,9.40
2023-01-29T03:41:59.024Z,8.00
2023-01-29T03:42:20.238Z,8.50
2023-01-29T03:42:41.312Z,8.60
2023-01-29T03:43:02.385Z,9.70
2023-01-29T03:43:23.454Z,9.70
2023-01-29T03:43:44.497Z,8.30
2023-01-29T03:44:05.575Z,8.60
2023-01-29T03:44:26.636Z,9.50
2023-01-29T03:44:49.046Z,9.60
2023-01-29T03:45:10.147Z,9.70
2023-01-29T03:45:31.246Z,8.90
2023-01-29T03:45:52.395Z,9.80
2023-01-29T03:46:13.460Z,9.60
2023-01-29T03:46:34.515Z,10.40
2023-01-29T03:46:55.561Z,9.30
2023-01-29T03:47:16.625Z,9.10
2023-01-29T03:47:37.715Z,9.20
2023-01-29T03:47:58.805Z,9.60
2023-01-29T03:48:19.858Z,9.30
2023-01-29T03:48:40.924Z,9.30
2023-01-29T03:49:01.996Z,9.30
2023-01-29T03:49:23.064Z,10.00
2023-01-29T03:49:44.099Z,8.70
2023-01-29T03:50:05.173Z,9.60
2023-01-29T03:50:26.233Z,9.00
2023-01-29T03:50:47.351Z,8.70
2023-01-29T03:51:08.386Z,8.50
2023-01-29T03:51:29.451Z,9.20
2023-01-29T03:51:50.521Z,9.50
2023-01-29T03:52:11.596Z,8.80
2023-01-29T03:52:32.634Z,9.20
2023-01-29T03:52:53.728Z,9.10
2023-01-29T03:53:14.781Z,9.90
2023-01-29T03:53:35.834Z,8.60
2023-01-29T03:53:56.902Z,8.50
2023-01-29T03:54:17.951Z,8.20
2023-01-29T03:54:39.026Z,8.90
2023-01-29T03:55:00.115Z,9.80
2023-01-29T03:55:21.151Z,9.60
2023-01-29T03:55:42.199Z,9.60
2023-01-29T03:56:03.279Z,9.70
2023-01-29T03:56:24.336Z,10.10
2023-01-29T03:56:45.415Z,9.70
2023-01-29T03:57:06.454Z,9.70
2023-01-29T03:57:27.568Z,10.20
2023-01-29T03:57:48.605Z,10.00
2023-01-29T03:58:09.877Z,9.30
2023-01-29T03:58:30.902Z,9.90
2023-01-29T03:58:51.987Z,9.90
2023-01-29T03:59:13.052Z,9.80
2023-01-29T03:59:34.165Z,10.10
2023-01-29T03:59:55.216Z,9.90
2023-01-29T04:00:16.635Z,10.10
2023-01-29T04:00:37.850Z,9.40
2023-01-29T04:00:58.905Z,10.00
2023-01-29T04:01:20.013Z,11.50
2023-01-29T04:01:41.186Z,10.20
2023-01-29T04:02:02.222Z,9.30
2023-01-29T04:02:23.312Z,9.30
2023-01-29T04:02:44.364Z,9.30
2023-01-29T04:03:05.442Z,10.30
2023-01-29T04:03:26.528Z,9.80
2023-01-29T04:03:47.665Z,11.10
2023-01-29T04:04:08.785Z,11.60
2023-01-29T04:04:29.874Z,10.70
2023-01-29T04:04:50.990Z,11.50
2023-01-29T04:05:12.054Z,11.50
2023-01-29T04:05:33.090Z,10.30
2023-01-29T04:05:54.138Z,11.10
2023-01-29T04:06:15.232Z,12.10
2023-01-29T04:06:36.280Z,12.10
2023-01-29T04:06:57.338Z,10.30
2023-01-29T04:07:18.440Z,11.40
2023-01-29T04:07:39.474Z,12.00
2023-01-29T04:08:00.528Z,10.40
2023-01-29T04:08:21.613Z,10.50
2023-01-29T04:08:42.681Z,11.00
2023-01-29T04:09:03.744Z,10.70
2023-01-29T04:09:24.804Z,10.00
2023-01-29T04:09:45.856Z,10.80
2023-01-29T04:10:06.923Z,10.60
2023-01-29T04:10:28.210Z,11.80
2023-01-29T04:10:49.265Z,10.70
2023-01-29T04:11:10.315Z,11.20
2023-01-29T04:11:31.372Z,11.90
2023-01-29T04:11:52.432Z,11.90
2023-01-29T04:12:13.494Z,11.50
2023-01-29T04:12:34.559Z,11.90
2023-01-29T04:12:55.620Z,12.50
2023-01-29T04:13:16.699Z,11.60
2023-01-29T04:13:37.727Z,11.60
2023-01-29T04:13:58.823Z,13.90
2023-01-29T04:14:19.899Z,15.50
2023-01-29T04:14:40.960Z,15.00
2023-01-29T04:15:02.015Z,16.30
2023-01-29T04:15:23.060Z,15.40
2023-01-29T04:15:44.128Z,14.80
2023-01-29T04:16:05.247Z,13.90
2023-01-29T04:16:26.378Z,14.40
2023-01-29T04:16:47.524Z,14.30
2023-01-29T04:17:08.574Z,15.10
2023-01-29T04:17:29.636Z,13.90
2023-01-29T04:17:50.701Z,13.20
2023-01-29T04:18:11.820Z,15.50
2023-01-29T04:18:32.878Z,15.10
2023-01-29T04:18:53.923Z,15.40
2023-01-29T04:19:15.038Z,14.50
2023-01-29T04:19:36.082Z,14.40
2023-01-29T04:19:57.134Z,15.60
2023-01-29T04:20:18.555Z,17.90
2023-01-29T04:20:39.849Z,18.00
2023-01-29T04:21:00.901Z,18.10
2023-01-29T04:21:21.948Z,16.70
2023-01-29T04:21:43.027Z,16.50
2023-01-29T04:22:04.072Z,14.50
2023-01-29T04:22:25.132Z,16.00
2023-01-29T04:22:46.215Z,16.20
2023-01-29T04:23:07.269Z,16.50
2023-01-29T04:23:28.354Z,17.50
2023-01-29T04:23:49.418Z,15.90
2023-01-29T04:24:10.498Z,17.50
2023-01-29T04:24:31.620Z,16.80
2023-01-29T04:24:52.663Z,17.60
2023-01-29T04:25:13.728Z,19.60
2023-01-29T04:25:34.784Z,21.30
2023-01-29T04:25:55.844Z,22.10
2023-01-29T04:26:16.896Z,21.00
2023-01-29T04:26:37.955Z,20.80
2023-01-29T04:26:59.017Z,21.40
2023-01-29T04:27:20.064Z,20.20
2023-01-29T04:27:41.137Z,19.80
2023-01-29T04:28:02.302Z,18.90
2023-01-29T04:28:23.343Z,16.90
2023-01-29T04:28:44.406Z,17.10
2023-01-29T04:29:05.461Z,16.10
2023-01-29T04:29:29.068Z,15.40
2023-01-29T04:29:51.206Z,15.60
2023-01-29T04:30:12.245Z,13.70
2023-01-29T04:30:33.404Z,12.60
2023-01-29T04:30:54.642Z,12.80
2023-01-29T04:31:15.959Z,12.30
2023-01-29T04:31:37.079Z,11.60
2023-01-29T04:31:58.161Z,11.40
2023-01-29T04:32:19.264Z,13.20
2023-01-29T04:32:40.352Z,12.60
2023-01-29T04:33:01.394Z,12.90
2023-01-29T04:33:22.451Z,13.40
2023-01-29T04:33:43.508Z,12.40
2023-01-29T04:34:04.608Z,12.70
2023-01-29T04:34:25.624Z,12.10
2023-01-29T04:34:46.680Z,11.60
2023-01-29T04:35:07.772Z,11.30
2023-01-29T04:35:28.847Z,11.90
2023-01-29T04:35:49.911Z,13.10
2023-01-29T04:36:10.970Z,12.80
2023-01-29T04:36:32.029Z,11.90